< < Back
Terminal Aerodrome Forecast


Current Version              Previous Versions:   1  2  3  4  5  6  7  8  9  

Terminal Aerodrome Forecast

264
FTUS42 KFFC 250500
TAFPDK
TAF
KPDK 250529Z 2506/2606 00000KT P6SM SKC
     FM251500 33007KT P6SM SKC
     FM260200 31004KT P6SM FEW025=

Latest METAR

704
SAUS70 KWBC 251800 RRM
MTRPDK
METAR KPDK 251753Z 30004KT 10SM CLR 23/02 A3005 RMK AO2 SLP170 T02280022
10228 20050 58012


USA.gov is the U.S. government's official web portal to all federal, state and local government web resources and services.